sensor_id;sensor_type;location;lat;lon;timestamp;temperature;humidity
9486;DHT22;4781;48.776;9.200;2024-01-30T00:01:26;5.70;98.30
9486;DHT22;4781;48.776;9.200;2024-01-30T00:03:54;5.60;98.50
9486;DHT22;4781;48.776;9.200;2024-01-30T00:06:23;5.70;98.60
9486;DHT22;4781;48.776;9.200;2024-01-30T00:08:51;5.70;98.40
9486;DHT22;4781;48.776;9.200;2024-01-30T00:11:20;5.70;98.80
9486;DHT22;4781;48.776;9.200;2024-01-30T00:13:48;5.70;98.90
9486;DHT22;4781;48.776;9.200;2024-01-30T00:16:23;5.70;99.00
9486;DHT22;4781;48.776;9.200;2024-01-30T00:18:52;5.70;99.30
9486;DHT22;4781;48.776;9.200;2024-01-30T00:21:21;5.70;99.20
9486;DHT22;4781;48.776;9.200;2024-01-30T00:23:50;5.70;99.10
9486;DHT22;4781;48.776;9.200;2024-01-30T00:26:18;5.70;99.10
9486;DHT22;4781;48.776;9.200;2024-01-30T00:28:47;5.60;99.00
9486;DHT22;4781;48.776;9.200;2024-01-30T00:31:15;5.70;99.20
9486;DHT22;4781;48.776;9.200;2024-01-30T00:33:44;5.60;99.30
9486;DHT22;4781;48.776;9.200;2024-01-30T00:36:13;5.60;99.40
9486;DHT22;4781;48.776;9.200;2024-01-30T00:38:42;5.60;99.30
9486;DHT22;4781;48.776;9.200;2024-01-30T00:41:10;5.60;99.50
9486;DHT22;4781;48.776;9.200;2024-01-30T00:43:38;5.60;99.50
9486;DHT22;4781;48.776;9.200;2024-01-30T00:46:07;5.60;99.80
9486;DHT22;4781;48.776;9.200;2024-01-30T00:48:35;5.70;99.70
9486;DHT22;4781;48.776;9.200;2024-01-30T00:51:04;5.70;99.60
9486;DHT22;4781;48.776;9.200;2024-01-30T00:53:32;5.60;99.60
9486;DHT22;4781;48.776;9.200;2024-01-30T00:56:00;5.60;99.50
9486;DHT22;4781;48.776;9.200;2024-01-30T00:58:30;5.60;99.50
9486;DHT22;4781;48.776;9.200;2024-01-30T01:00:58;5.60;99.30
9486;DHT22;4781;48.776;9.200;2024-01-30T01:03:26;5.60;99.50
9486;DHT22;4781;48.776;9.200;2024-01-30T01:05:55;5.60;99.50
9486;DHT22;4781;48.776;9.200;2024-01-30T01:08:23;5.60;99.50
9486;DHT22;4781;48.776;9.200;2024-01-30T01:10:51;5.70;98.90
9486;DHT22;4781;48.776;9.200;2024-01-30T01:13:20;5.60;99.10
9486;DHT22;4781;48.776;9.200;2024-01-30T01:15:48;5.60;98.90
9486;DHT22;4781;48.776;9.200;2024-01-30T01:18:26;5.50;99.40
9486;DHT22;4781;48.776;9.200;2024-01-30T01:20:54;5.40;99.90
9486;DHT22;4781;48.776;9.200;2024-01-30T01:23:22;5.50;99.90
9486;DHT22;4781;48.776;9.200;2024-01-30T01:25:51;5.40;99.70
9486;DHT22;4781;48.776;9.200;2024-01-30T01:28:19;5.40;99.90
9486;DHT22;4781;48.776;9.200;2024-01-30T01:30:48;5.40;99.90
9486;DHT22;4781;48.776;9.200;2024-01-30T01:33:18;5.40;99.80
9486;DHT22;4781;48.776;9.200;2024-01-30T01:35:46;5.40;99.90
9486;DHT22;4781;48.776;9.200;2024-01-30T01:38:14;5.30;99.90
9486;DHT22;4781;48.776;9.200;2024-01-30T01:40:43;5.30;99.90
9486;DHT22;4781;48.776;9.200;2024-01-30T01:43:12;5.30;99.90
9486;DHT22;4781;48.776;9.200;2024-01-30T01:45:40;5.40;99.90
9486;DHT22;4781;48.776;9.200;2024-01-30T01:48:09;5.30;99.90
9486;DHT22;4781;48.776;9.200;2024-01-30T01:50:38;5.20;99.90
9486;DHT22;4781;48.776;9.200;2024-01-30T01:53:08;5.20;99.90
9486;DHT22;4781;48.776;9.200;2024-01-30T01:55:37;5.30;99.90
9486;DHT22;4781;48.776;9.200;2024-01-30T01:58:06;5.30;99.90
9486;DHT22;4781;48.776;9.200;2024-01-30T02:00:36;5.30;99.90
9486;DHT22;4781;48.776;9.200;2024-01-30T02:03:08;5.30;99.90
9486;DHT22;4781;48.776;9.200;2024-01-30T02:05:40;5.30;99.90
9486;DHT22;4781;48.776;9.200;2024-01-30T02:08:09;5.30;99.90
9486;DHT22;4781;48.776;9.200;2024-01-30T02:10:37;5.30;99.90
9486;DHT22;4781;48.776;9.200;2024-01-30T02:13:06;5.30;99.90
9486;DHT22;4781;48.776;9.200;2024-01-30T02:15:34;5.30;99.90
9486;DHT22;4781;48.776;9.200;2024-01-30T02:18:03;5.30;99.90
9486;DHT22;4781;48.776;9.200;2024-01-30T02:20:31;5.40;99.90
9486;DHT22;4781;48.776;9.200;2024-01-30T02:23:02;5.40;99.90
9486;DHT22;4781;48.776;9.200;2024-01-30T02:25:34;5.30;99.90
9486;DHT22;4781;48.776;9.200;2024-01-30T02:28:04;5.30;99.90
9486;DHT22;4781;48.776;9.200;2024-01-30T02:30:33;5.30;99.90
9486;DHT22;4781;48.776;9.200;2024-01-30T02:33:01;5.30;99.90
9486;DHT22;4781;48.776;9.200;2024-01-30T02:35:29;5.20;99.90
9486;DHT22;4781;48.776;9.200;2024-01-30T02:37:58;5.30;99.90
9486;DHT22;4781;48.776;9.200;2024-01-30T02:40:26;5.30;99.90
9486;DHT22;4781;48.776;9.200;2024-01-30T02:42:55;5.30;99.90
9486;DHT22;4781;48.776;9.200;2024-01-30T02:45:23;5.30;99.90
9486;DHT22;4781;48.776;9.200;2024-01-30T02:47:52;5.30;99.90
9486;DHT22;4781;48.776;9.200;2024-01-30T02:50:20;5.20;99.90
9486;DHT22;4781;48.776;9.200;2024-01-30T02:52:49;5.30;99.90
9486;DHT22;4781;48.776;9.200;2024-01-30T02:55:17;5.30;99.90
9486;DHT22;4781;48.776;9.200;2024-01-30T02:57:46;5.20;99.90
9486;DHT22;4781;48.776;9.200;2024-01-30T03:00:14;5.20;99.90
9486;DHT22;4781;48.776;9.200;2024-01-30T03:02:43;5.00;99.90
9486;DHT22;4781;48.776;9.200;2024-01-30T03:05:11;4.90;99.90
9486;DHT22;4781;48.776;9.200;2024-01-30T03:07:40;4.90;99.90
9486;DHT22;4781;48.776;9.200;2024-01-30T03:10:08;4.90;99.90
9486;DHT22;4781;48.776;9.200;2024-01-30T03:12:36;4.90;99.90
9486;DHT22;4781;48.776;9.200;2024-01-30T03:15:05;5.10;99.90
9486;DHT22;4781;48.776;9.200;2024-01-30T03:17:34;4.90;99.90
9486;DHT22;4781;48.776;9.200;2024-01-30T03:20:04;5.00;99.90
9486;DHT22;4781;48.776;9.200;2024-01-30T03:22:33;4.90;99.90
9486;DHT22;4781;48.776;9.200;2024-01-30T03:25:01;4.80;99.90
9486;DHT22;4781;48.776;9.200;2024-01-30T03:27:30;4.60;99.90
9486;DHT22;4781;48.776;9.200;2024-01-30T03:29:58;4.60;99.90
9486;DHT22;4781;48.776;9.200;2024-01-30T03:32:26;4.70;99.90
9486;DHT22;4781;48.776;9.200;2024-01-30T03:34:55;4.70;99.90
9486;DHT22;4781;48.776;9.200;2024-01-30T03:37:24;4.60;99.90
9486;DHT22;4781;48.776;9.200;2024-01-30T03:39:53;4.50;99.90
9486;DHT22;4781;48.776;9.200;2024-01-30T03:42:21;4.30;99.90
9486;DHT22;4781;48.776;9.200;2024-01-30T03:44:49;4.30;99.90
9486;DHT22;4781;48.776;9.200;2024-01-30T03:47:21;4.30;99.90
9486;DHT22;4781;48.776;9.200;2024-01-30T03:49:50;4.40;99.90
9486;DHT22;4781;48.776;9.200;2024-01-30T03:52:18;4.40;99.90
9486;DHT22;4781;48.776;9.200;2024-01-30T03:54:46;4.40;99.90
9486;DHT22;4781;48.776;9.200;2024-01-30T03:57:15;4.40;99.90
9486;DHT22;4781;48.776;9.200;2024-01-30T03:59:43;4.40;99.90
9486;DHT22;4781;48.776;9.200;2024-01-30T04:02:11;4.30;99.90
9486;DHT22;4781;48.776;9.200;2024-01-30T04:04:40;4.30;99.90
9486;DHT22;4781;48.776;9.200;2024-01-30T04:07:08;4.30;99.90
9486;DHT22;4781;48.776;9.200;2024-01-30T04:09:38;4.30;99.90
9486;DHT22;4781;48.776;9.200;2024-01-30T04:12:07;4.30;99.90
9486;DHT22;4781;48.776;9.200;2024-01-30T04:14:35;4.30;99.90
9486;DHT22;4781;48.776;9.200;2024-01-30T04:17:05;4.30;99.90
9486;DHT22;4781;48.776;9.200;2024-01-30T04:19:37;4.30;99.90
9486;DHT22;4781;48.776;9.200;2024-01-30T04:22:05;4.20;99.90
9486;DHT22;4781;48.776;9.200;2024-01-30T04:24:34;4.20;99.90
9486;DHT22;4781;48.776;9.200;2024-01-30T04:27:02;4.20;99.90
9486;DHT22;4781;48.776;9.200;2024-01-30T04:29:31;4.10;99.90
9486;DHT22;4781;48.776;9.200;2024-01-30T04:32:00;4.10;99.90
9486;DHT22;4781;48.776;9.200;2024-01-30T04:34:28;4.10;99.90
9486;DHT22;4781;48.776;9.200;2024-01-30T04:36:57;3.90;99.90
9486;DHT22;4781;48.776;9.200;2024-01-30T04:39:25;3.90;99.90
9486;DHT22;4781;48.776;9.200;2024-01-30T04:41:54;4.00;99.90
9486;DHT22;4781;48.776;9.200;2024-01-30T04:44:22;4.00;99.90
9486;DHT22;4781;48.776;9.200;2024-01-30T04:46:50;4.00;99.90
9486;DHT22;4781;48.776;9.200;2024-01-30T04:49:19;3.90;99.90
9486;DHT22;4781;48.776;9.200;2024-01-30T04:51:47;3.90;99.90
9486;DHT22;4781;48.776;9.200;2024-01-30T04:54:15;3.80;99.90
9486;DHT22;4781;48.776;9.200;2024-01-30T04:56:44;3.90;99.90
9486;DHT22;4781;48.776;9.200;2024-01-30T04:59:12;3.90;99.90
9486;DHT22;4781;48.776;9.200;2024-01-30T05:01:41;3.90;99.90
9486;DHT22;4781;48.776;9.200;2024-01-30T05:04:09;3.80;99.90
9486;DHT22;4781;48.776;9.200;2024-01-30T05:06:38;3.80;99.90
9486;DHT22;4781;48.776;9.200;2024-01-30T05:09:06;3.80;99.90
9486;DHT22;4781;48.776;9.200;2024-01-30T05:11:39;3.70;99.90
9486;DHT22;4781;48.776;9.200;2024-01-30T05:14:08;3.70;99.90
9486;DHT22;4781;48.776;9.200;2024-01-30T05:16:37;3.70;99.90
9486;DHT22;4781;48.776;9.200;2024-01-30T05:19:05;3.70;99.90
9486;DHT22;4781;48.776;9.200;2024-01-30T05:21:34;3.80;99.90
9486;DHT22;4781;48.776;9.200;2024-01-30T05:24:02;3.80;99.90
9486;DHT22;4781;48.776;9.200;2024-01-30T05:26:31;3.70;99.90
9486;DHT22;4781;48.776;9.200;2024-01-30T05:28:59;3.70;99.90
9486;DHT22;4781;48.776;9.200;2024-01-30T05:31:28;3.60;99.90
9486;DHT22;4781;48.776;9.200;2024-01-30T05:33:56;3.60;99.90
9486;DHT22;4781;48.776;9.200;2024-01-30T05:36:24;3.60;99.90
9486;DHT22;4781;48.776;9.200;2024-01-30T05:38:53;3.60;99.90
9486;DHT22;4781;48.776;9.200;2024-01-30T05:41:21;3.60;99.90
9486;DHT22;4781;48.776;9.200;2024-01-30T05:43:49;3.50;99.90
9486;DHT22;4781;48.776;9.200;2024-01-30T05:46:18;3.50;99.90
9486;DHT22;4781;48.776;9.200;2024-01-30T05:48:46;3.50;99.90
9486;DHT22;4781;48.776;9.200;2024-01-30T05:51:15;3.50;99.90
9486;DHT22;4781;48.776;9.200;2024-01-30T05:53:43;3.60;99.90
9486;DHT22;4781;48.776;9.200;2024-01-30T05:56:11;3.60;99.90
9486;DHT22;4781;48.776;9.200;2024-01-30T05:58:40;3.60;99.90
9486;DHT22;4781;48.776;9.200;2024-01-30T06:01:09;3.60;99.90
9486;DHT22;4781;48.776;9.200;2024-01-30T06:03:38;3.60;99.90
9486;DHT22;4781;48.776;9.200;2024-01-30T06:06:07;3.60;99.90
9486;DHT22;4781;48.776;9.200;2024-01-30T06:08:35;3.60;99.90
9486;DHT22;4781;48.776;9.200;2024-01-30T06:11:03;3.60;99.90
9486;DHT22;4781;48.776;9.200;2024-01-30T06:13:32;3.70;99.90
9486;DHT22;4781;48.776;9.200;2024-01-30T06:16:00;3.70;99.90
9486;DHT22;4781;48.776;9.200;2024-01-30T06:18:29;3.70;99.90
9486;DHT22;4781;48.776;9.200;2024-01-30T06:20:57;3.70;99.90
9486;DHT22;4781;48.776;9.200;2024-01-30T06:23:26;3.70;99.90
9486;DHT22;4781;48.776;9.200;2024-01-30T06:25:54;3.70;99.90
9486;DHT22;4781;48.776;9.200;2024-01-30T06:28:22;3.70;99.90
9486;DHT22;4781;48.776;9.200;2024-01-30T06:30:51;4.00;99.90
9486;DHT22;4781;48.776;9.200;2024-01-30T06:33:19;3.70;99.90
9486;DHT22;4781;48.776;9.200;2024-01-30T06:35:48;3.80;99.90
9486;DHT22;4781;48.776;9.200;2024-01-30T06:38:16;3.80;99.90
9486;DHT22;4781;48.776;9.200;2024-01-30T06:40:44;3.80;99.90
9486;DHT22;4781;48.776;9.200;2024-01-30T06:43:13;3.80;99.90
9486;DHT22;4781;48.776;9.200;2024-01-30T06:45:41;3.80;99.90
9486;DHT22;4781;48.776;9.200;2024-01-30T06:48:11;3.80;99.90
9486;DHT22;4781;48.776;9.200;2024-01-30T06:50:40;3.80;99.90
9486;DHT22;4781;48.776;9.200;2024-01-30T06:53:08;3.80;99.90
9486;DHT22;4781;48.776;9.200;2024-01-30T06:55:36;3.80;99.90
9486;DHT22;4781;48.776;9.200;2024-01-30T06:58:05;3.80;99.90
9486;DHT22;4781;48.776;9.200;2024-01-30T07:00:33;3.70;99.90
9486;DHT22;4781;48.776;9.200;2024-01-30T07:03:02;3.70;99.90
9486;DHT22;4781;48.776;9.200;2024-01-30T07:05:32;3.70;99.90
9486;DHT22;4781;48.776;9.200;2024-01-30T07:08:00;3.70;99.90
9486;DHT22;4781;48.776;9.200;2024-01-30T07:10:29;3.70;99.90
9486;DHT22;4781;48.776;9.200;2024-01-30T07:12:58;3.70;99.90
9486;DHT22;4781;48.776;9.200;2024-01-30T07:15:27;3.70;99.90
9486;DHT22;4781;48.776;9.200;2024-01-30T07:17:56;3.70;99.90
9486;DHT22;4781;48.776;9.200;2024-01-30T07:20:24;3.70;99.90
9486;DHT22;4781;48.776;9.200;2024-01-30T07:22:52;3.80;99.90
9486;DHT22;4781;48.776;9.200;2024-01-30T07:25:21;3.80;99.90
9486;DHT22;4781;48.776;9.200;2024-01-30T07:27:51;3.80;99.90
9486;DHT22;4781;48.776;9.200;2024-01-30T07:30:21;3.90;99.90
9486;DHT22;4781;48.776;9.200;2024-01-30T07:32:50;4.00;99.90
9486;DHT22;4781;48.776;9.200;2024-01-30T07:35:18;4.00;99.90
9486;DHT22;4781;48.776;9.200;2024-01-30T07:37:46;4.10;99.90
9486;DHT22;4781;48.776;9.200;2024-01-30T07:40:15;4.00;99.90
9486;DHT22;4781;48.776;9.200;2024-01-30T07:42:44;4.00;99.90
9486;DHT22;4781;48.776;9.200;2024-01-30T07:45:12;4.10;99.90
9486;DHT22;4781;48.776;9.200;2024-01-30T07:47:41;4.00;99.90
9486;DHT22;4781;48.776;9.200;2024-01-30T07:50:09;4.00;99.90
9486;DHT22;4781;48.776;9.200;2024-01-30T07:52:38;4.00;99.90
9486;DHT22;4781;48.776;9.200;2024-01-30T07:55:06;4.00;99.90
9486;DHT22;4781;48.776;9.200;2024-01-30T07:57:35;3.90;99.90
9486;DHT22;4781;48.776;9.200;2024-01-30T08:00:06;4.00;99.90
9486;DHT22;4781;48.776;9.200;2024-01-30T08:02:34;4.00;99.90
9486;DHT22;4781;48.776;9.200;2024-01-30T08:05:03;4.00;99.90
9486;DHT22;4781;48.776;9.200;2024-01-30T08:07:31;4.00;99.90
9486;DHT22;4781;48.776;9.200;2024-01-30T08:10:00;4.30;99.90
9486;DHT22;4781;48.776;9.200;2024-01-30T08:12:28;4.40;99.90
9486;DHT22;4781;48.776;9.200;2024-01-30T08:14:57;4.40;99.90
9486;DHT22;4781;48.776;9.200;2024-01-30T08:17:25;4.50;99.90
9486;DHT22;4781;48.776;9.200;2024-01-30T08:19:53;4.50;99.90
9486;DHT22;4781;48.776;9.200;2024-01-30T08:22:22;4.60;99.90
9486;DHT22;4781;48.776;9.200;2024-01-30T08:24:50;4.70;99.90
9486;DHT22;4781;48.776;9.200;2024-01-30T08:27:18;4.80;99.90
9486;DHT22;4781;48.776;9.200;2024-01-30T08:29:47;4.90;99.90
9486;DHT22;4781;48.776;9.200;2024-01-30T08:32:16;5.10;99.90
9486;DHT22;4781;48.776;9.200;2024-01-30T08:34:45;5.20;99.90
9486;DHT22;4781;48.776;9.200;2024-01-30T08:37:13;5.30;99.90
9486;DHT22;4781;48.776;9.200;2024-01-30T08:39:43;5.40;99.90
9486;DHT22;4781;48.776;9.200;2024-01-30T08:42:12;5.50;99.90
9486;DHT22;4781;48.776;9.200;2024-01-30T08:44:40;5.60;99.90
9486;DHT22;4781;48.776;9.200;2024-01-30T08:47:08;5.70;99.90
9486;DHT22;4781;48.776;9.200;2024-01-30T08:49:37;5.80;99.90
9486;DHT22;4781;48.776;9.200;2024-01-30T08:52:05;5.90;99.90
9486;DHT22;4781;48.776;9.200;2024-01-30T08:54:34;6.00;99.90
9486;DHT22;4781;48.776;9.200;2024-01-30T08:57:02;6.10;99.90
9486;DHT22;4781;48.776;9.200;2024-01-30T08:59:30;6.00;99.90
9486;DHT22;4781;48.776;9.200;2024-01-30T09:02:00;6.10;99.90
9486;DHT22;4781;48.776;9.200;2024-01-30T09:04:29;6.10;99.90
9486;DHT22;4781;48.776;9.200;2024-01-30T09:06:57;6.10;99.90
9486;DHT22;4781;48.776;9.200;2024-01-30T09:09:25;6.10;99.90
9486;DHT22;4781;48.776;9.200;2024-01-30T09:11:54;6.20;99.90
9486;DHT22;4781;48.776;9.200;2024-01-30T09:14:22;6.20;99.90
9486;DHT22;4781;48.776;9.200;2024-01-30T09:16:50;6.30;99.90
9486;DHT22;4781;48.776;9.200;2024-01-30T09:19:19;6.30;99.90
9486;DHT22;4781;48.776;9.200;2024-01-30T09:21:47;6.40;99.90
9486;DHT22;4781;48.776;9.200;2024-01-30T09:24:16;6.50;99.90
9486;DHT22;4781;48.776;9.200;2024-01-30T09:26:44;6.60;99.90
9486;DHT22;4781;48.776;9.200;2024-01-30T09:29:12;6.80;99.90
9486;DHT22;4781;48.776;9.200;2024-01-30T09:31:45;6.90;99.90
9486;DHT22;4781;48.776;9.200;2024-01-30T09:34:14;7.10;99.90
9486;DHT22;4781;48.776;9.200;2024-01-30T09:36:42;7.20;99.90
9486;DHT22;4781;48.776;9.200;2024-01-30T09:39:11;7.30;99.90
9486;DHT22;4781;48.776;9.200;2024-01-30T09:41:49;7.50;99.90
9486;DHT22;4781;48.776;9.200;2024-01-30T09:44:34;7.60;99.90
9486;DHT22;4781;48.776;9.200;2024-01-30T09:47:03;7.80;99.90
9486;DHT22;4781;48.776;9.200;2024-01-30T09:49:32;8.00;99.90
9486;DHT22;4781;48.776;9.200;2024-01-30T09:52:06;8.10;99.90
9486;DHT22;4781;48.776;9.200;2024-01-30T09:54:35;8.20;99.90
9486;DHT22;4781;48.776;9.200;2024-01-30T09:57:04;8.20;99.90
9486;DHT22;4781;48.776;9.200;2024-01-30T09:59:33;8.30;99.90
9486;DHT22;4781;48.776;9.200;2024-01-30T10:02:02;8.40;99.90
9486;DHT22;4781;48.776;9.200;2024-01-30T10:04:31;8.50;99.90
9486;DHT22;4781;48.776;9.200;2024-01-30T10:07:03;8.50;99.90
9486;DHT22;4781;48.776;9.200;2024-01-30T10:09:32;8.60;99.90
9486;DHT22;4781;48.776;9.200;2024-01-30T10:12:02;8.70;99.90
9486;DHT22;4781;48.776;9.200;2024-01-30T10:14:31;8.80;99.90
9486;DHT22;4781;48.776;9.200;2024-01-30T10:17:01;9.00;99.90
9486;DHT22;4781;48.776;9.200;2024-01-30T10:19:29;9.10;99.90
9486;DHT22;4781;48.776;9.200;2024-01-30T10:21:59;9.20;99.90
9486;DHT22;4781;48.776;9.200;2024-01-30T10:24:28;9.30;99.90
9486;DHT22;4781;48.776;9.200;2024-01-30T10:26:56;9.30;99.90
9486;DHT22;4781;48.776;9.200;2024-01-30T10:29:25;9.40;99.90
9486;DHT22;4781;48.776;9.200;2024-01-30T10:32:04;9.40;99.90
9486;DHT22;4781;48.776;9.200;2024-01-30T10:34:34;9.40;99.90
9486;DHT22;4781;48.776;9.200;2024-01-30T10:37:10;9.50;99.90
9486;DHT22;4781;48.776;9.200;2024-01-30T10:39:45;9.60;99.90
9486;DHT22;4781;48.776;9.200;2024-01-30T10:42:17;9.50;99.90
9486;DHT22;4781;48.776;9.200;2024-01-30T10:47:40;9.60;99.90
9486;DHT22;4781;48.776;9.200;2024-01-30T10:50:11;9.60;99.90
9486;DHT22;4781;48.776;9.200;2024-01-30T10:52:41;9.70;99.90
9486;DHT22;4781;48.776;9.200;2024-01-30T10:55:10;9.70;99.90
9486;DHT22;4781;48.776;9.200;2024-01-30T10:57:39;9.70;99.90
9486;DHT22;4781;48.776;9.200;2024-01-30T11:00:10;9.80;99.90
9486;DHT22;4781;48.776;9.200;2024-01-30T11:02:41;9.80;99.90
9486;DHT22;4781;48.776;9.200;2024-01-30T11:05:13;9.80;99.90
9486;DHT22;4781;48.776;9.200;2024-01-30T11:07:42;9.90;99.90
9486;DHT22;4781;48.776;9.200;2024-01-30T11:10:12;10.00;99.90
9486;DHT22;4781;48.776;9.200;2024-01-30T11:12:41;10.10;99.90
9486;DHT22;4781;48.776;9.200;2024-01-30T11:15:14;10.20;99.90
9486;DHT22;4781;48.776;9.200;2024-01-30T11:17:50;10.20;99.90
9486;DHT22;4781;48.776;9.200;2024-01-30T11:20:26;10.20;99.90
9486;DHT22;4781;48.776;9.200;2024-01-30T11:23:00;10.20;99.90
9486;DHT22;4781;48.776;9.200;2024-01-30T11:25:31;10.30;99.90
9486;DHT22;4781;48.776;9.200;2024-01-30T11:28:00;10.50;99.90
9486;DHT22;4781;48.776;9.200;2024-01-30T11:30:32;10.60;99.90
9486;DHT22;4781;48.776;9.200;2024-01-30T11:33:10;10.70;99.90
9486;DHT22;4781;48.776;9.200;2024-01-30T11:35:46;10.70;99.90
9486;DHT22;4781;48.776;9.200;2024-01-30T11:38:11;10.60;99.90
9486;DHT22;4781;48.776;9.200;2024-01-30T11:40:41;10.80;99.90
9486;DHT22;4781;48.776;9.200;2024-01-30T11:43:11;10.70;99.90
9486;DHT22;4781;48.776;9.200;2024-01-30T11:45:40;10.80;99.90
9486;DHT22;4781;48.776;9.200;2024-01-30T11:48:11;10.80;99.90
9486;DHT22;4781;48.776;9.200;2024-01-30T11:50:40;10.90;99.90
9486;DHT22;4781;48.776;9.200;2024-01-30T11:53:09;10.90;99.90
9486;DHT22;4781;48.776;9.200;2024-01-30T11:55:38;11.10;99.90
9486;DHT22;4781;48.776;9.200;2024-01-30T11:58:06;11.10;99.90
9486;DHT22;4781;48.776;9.200;2024-01-30T12:00:35;11.10;99.90
9486;DHT22;4781;48.776;9.200;2024-01-30T12:03:03;11.10;99.90
9486;DHT22;4781;48.776;9.200;2024-01-30T12:05:33;11.10;99.90
9486;DHT22;4781;48.776;9.200;2024-01-30T12:08:03;11.30;99.90
9486;DHT22;4781;48.776;9.200;2024-01-30T12:10:31;11.30;99.90
9486;DHT22;4781;48.776;9.200;2024-01-30T12:13:00;11.30;99.90
9486;DHT22;4781;48.776;9.200;2024-01-30T12:15:29;11.30;99.90
9486;DHT22;4781;48.776;9.200;2024-01-30T12:18:05;11.40;99.90
9486;DHT22;4781;48.776;9.200;2024-01-30T12:20:34;11.30;99.90
9486;DHT22;4781;48.776;9.200;2024-01-30T12:23:02;11.40;99.90
9486;DHT22;4781;48.776;9.200;2024-01-30T12:25:31;11.40;99.90
9486;DHT22;4781;48.776;9.200;2024-01-30T12:27:59;11.50;99.90
9486;DHT22;4781;48.776;9.200;2024-01-30T12:30:29;11.50;99.90
9486;DHT22;4781;48.776;9.200;2024-01-30T12:32:57;11.50;99.90
9486;DHT22;4781;48.776;9.200;2024-01-30T12:35:26;11.50;99.90
9486;DHT22;4781;48.776;9.200;2024-01-30T12:37:54;11.50;99.90
9486;DHT22;4781;48.776;9.200;2024-01-30T12:40:23;11.60;99.90
9486;DHT22;4781;48.776;9.200;2024-01-30T12:42:52;11.70;99.90
9486;DHT22;4781;48.776;9.200;2024-01-30T12:45:21;11.80;99.90
9486;DHT22;4781;48.776;9.200;2024-01-30T12:47:49;11.80;99.90
9486;DHT22;4781;48.776;9.200;2024-01-30T12:50:18;11.90;99.90
9486;DHT22;4781;48.776;9.200;2024-01-30T12:52:47;11.90;99.90
9486;DHT22;4781;48.776;9.200;2024-01-30T12:55:15;12.00;99.90
9486;DHT22;4781;48.776;9.200;2024-01-30T12:57:44;12.00;99.90
9486;DHT22;4781;48.776;9.200;2024-01-30T13:00:12;12.10;99.90
9486;DHT22;4781;48.776;9.200;2024-01-30T13:02:42;12.10;99.90
9486;DHT22;4781;48.776;9.200;2024-01-30T13:05:11;12.10;99.90
9486;DHT22;4781;48.776;9.200;2024-01-30T13:07:40;12.10;99.90
9486;DHT22;4781;48.776;9.200;2024-01-30T13:10:08;12.10;99.90
9486;DHT22;4781;48.776;9.200;2024-01-30T13:12:37;12.10;99.90
9486;DHT22;4781;48.776;9.200;2024-01-30T13:15:05;12.20;99.90
9486;DHT22;4781;48.776;9.200;2024-01-30T13:17:34;12.20;99.90
9486;DHT22;4781;48.776;9.200;2024-01-30T13:20:02;12.10;99.80
9486;DHT22;4781;48.776;9.200;2024-01-30T13:22:31;12.20;99.90
9486;DHT22;4781;48.776;9.200;2024-01-30T13:25:00;12.20;99.50
9486;DHT22;4781;48.776;9.200;2024-01-30T13:27:28;12.20;99.30
9486;DHT22;4781;48.776;9.200;2024-01-30T13:29:56;12.20;99.00
9486;DHT22;4781;48.776;9.200;2024-01-30T13:32:25;12.30;99.10
9486;DHT22;4781;48.776;9.200;2024-01-30T13:34:53;12.30;99.00
9486;DHT22;4781;48.776;9.200;2024-01-30T13:37:22;12.30;98.90
9486;DHT22;4781;48.776;9.200;2024-01-30T13:39:51;12.30;98.90
9486;DHT22;4781;48.776;9.200;2024-01-30T13:42:20;12.30;99.00
9486;DHT22;4781;48.776;9.200;2024-01-30T13:44:48;12.30;98.60
9486;DHT22;4781;48.776;9.200;2024-01-30T13:47:17;12.10;98.40
9486;DHT22;4781;48.776;9.200;2024-01-30T13:49:47;12.20;98.40
9486;DHT22;4781;48.776;9.200;2024-01-30T13:52:15;12.20;98.60
9486;DHT22;4781;48.776;9.200;2024-01-30T13:54:44;12.20;98.50
9486;DHT22;4781;48.776;9.200;2024-01-30T13:57:12;12.20;98.70
9486;DHT22;4781;48.776;9.200;2024-01-30T13:59:41;12.20;98.50
9486;DHT22;4781;48.776;9.200;2024-01-30T14:02:09;12.20;98.80
9486;DHT22;4781;48.776;9.200;2024-01-30T14:04:38;12.20;98.70
9486;DHT22;4781;48.776;9.200;2024-01-30T14:07:06;12.20;98.90
9486;DHT22;4781;48.776;9.200;2024-01-30T14:09:35;12.20;99.10
9486;DHT22;4781;48.776;9.200;2024-01-30T14:12:04;12.30;99.50
9486;DHT22;4781;48.776;9.200;2024-01-30T14:14:32;12.30;99.30
9486;DHT22;4781;48.776;9.200;2024-01-30T14:17:02;12.30;99.30
9486;DHT22;4781;48.776;9.200;2024-01-30T14:19:34;12.30;99.40
9486;DHT22;4781;48.776;9.200;2024-01-30T14:22:02;12.30;99.10
9486;DHT22;4781;48.776;9.200;2024-01-30T14:24:31;12.30;99.50
9486;DHT22;4781;48.776;9.200;2024-01-30T14:26:59;12.30;99.30
9486;DHT22;4781;48.776;9.200;2024-01-30T14:29:27;12.40;99.50
9486;DHT22;4781;48.776;9.200;2024-01-30T14:31:56;12.30;99.60
9486;DHT22;4781;48.776;9.200;2024-01-30T14:34:24;12.30;99.50
9486;DHT22;4781;48.776;9.200;2024-01-30T14:36:53;12.30;99.30
9486;DHT22;4781;48.776;9.200;2024-01-30T14:39:22;12.30;99.10
9486;DHT22;4781;48.776;9.200;2024-01-30T14:41:50;12.20;98.70
9486;DHT22;4781;48.776;9.200;2024-01-30T14:44:19;12.20;99.00
9486;DHT22;4781;48.776;9.200;2024-01-30T14:46:47;12.10;98.70
9486;DHT22;4781;48.776;9.200;2024-01-30T14:49:16;12.10;99.00
9486;DHT22;4781;48.776;9.200;2024-01-30T14:51:44;12.10;99.00
9486;DHT22;4781;48.776;9.200;2024-01-30T14:54:13;12.10;99.00
9486;DHT22;4781;48.776;9.200;2024-01-30T14:56:41;12.10;99.00
9486;DHT22;4781;48.776;9.200;2024-01-30T14:59:10;12.00;98.50
9486;DHT22;4781;48.776;9.200;2024-01-30T15:01:38;12.00;99.10
9486;DHT22;4781;48.776;9.200;2024-01-30T15:04:07;12.00;99.00
9486;DHT22;4781;48.776;9.200;2024-01-30T15:06:35;12.00;98.90
9486;DHT22;4781;48.776;9.200;2024-01-30T15:09:04;12.00;98.80
9486;DHT22;4781;48.776;9.200;2024-01-30T15:11:32;11.90;98.70
9486;DHT22;4781;48.776;9.200;2024-01-30T15:14:02;11.90;98.50
9486;DHT22;4781;48.776;9.200;2024-01-30T15:16:30;11.80;98.80
9486;DHT22;4781;48.776;9.200;2024-01-30T15:18:59;11.80;98.80
9486;DHT22;4781;48.776;9.200;2024-01-30T15:21:27;11.70;98.90
9486;DHT22;4781;48.776;9.200;2024-01-30T15:23:56;11.70;99.50
9486;DHT22;4781;48.776;9.200;2024-01-30T15:26:25;11.70;99.40
9486;DHT22;4781;48.776;9.200;2024-01-30T15:28:53;11.60;99.30
9486;DHT22;4781;48.776;9.200;2024-01-30T15:31:22;11.60;99.20
9486;DHT22;4781;48.776;9.200;2024-01-30T15:33:50;11.50;99.10
9486;DHT22;4781;48.776;9.200;2024-01-30T15:36:18;11.50;99.00
9486;DHT22;4781;48.776;9.200;2024-01-30T15:38:47;11.40;99.20
9486;DHT22;4781;48.776;9.200;2024-01-30T15:41:15;11.40;99.20
9486;DHT22;4781;48.776;9.200;2024-01-30T15:43:44;11.30;99.00
9486;DHT22;4781;48.776;9.200;2024-01-30T15:46:12;11.30;99.50
9486;DHT22;4781;48.776;9.200;2024-01-30T15:48:40;11.20;99.60
9486;DHT22;4781;48.776;9.200;2024-01-30T15:51:09;11.20;99.60
9486;DHT22;4781;48.776;9.200;2024-01-30T15:53:37;11.10;99.70
9486;DHT22;4781;48.776;9.200;2024-01-30T15:56:06;11.00;99.80
9486;DHT22;4781;48.776;9.200;2024-01-30T15:58:34;10.90;99.60
9486;DHT22;4781;48.776;9.200;2024-01-30T16:01:03;10.90;99.90
9486;DHT22;4781;48.776;9.200;2024-01-30T16:03:31;10.90;99.90
9486;DHT22;4781;48.776;9.200;2024-01-30T16:05:59;10.90;99.90
9486;DHT22;4781;48.776;9.200;2024-01-30T16:08:28;10.80;99.90
9486;DHT22;4781;48.776;9.200;2024-01-30T16:10:56;10.80;99.90
9486;DHT22;4781;48.776;9.200;2024-01-30T16:13:24;10.70;99.90
9486;DHT22;4781;48.776;9.200;2024-01-30T16:15:53;10.60;99.90
9486;DHT22;4781;48.776;9.200;2024-01-30T16:18:21;10.60;99.80
9486;DHT22;4781;48.776;9.200;2024-01-30T16:20:51;10.50;99.80
9486;DHT22;4781;48.776;9.200;2024-01-30T16:23:20;10.50;99.70
9486;DHT22;4781;48.776;9.200;2024-01-30T16:25:48;10.50;99.60